sensor_id;sensor_type;location;lat;lon;timestamp;P1;durP1;ratioP1;P2;durP2;ratioP2
51124;SDS011;37163;55.556;39.108;2022-07-06T00:00:54;7.13;;;4.93;;
51124;SDS011;37163;55.556;39.108;2022-07-06T00:03:21;9.65;;;5.53;;
51124;SDS011;37163;55.556;39.108;2022-07-06T00:06:05;8.70;;;5.70;;
51124;SDS011;37163;55.556;39.108;2022-07-06T00:08:32;8.52;;;5.53;;
51124;SDS011;37163;55.556;39.108;2022-07-06T00:10:59;8.43;;;5.70;;
51124;SDS011;37163;55.556;39.108;2022-07-06T00:13:26;9.85;;;6.10;;
51124;SDS011;37163;55.556;39.108;2022-07-06T00:15:53;9.48;;;6.28;;
51124;SDS011;37163;55.556;39.108;2022-07-06T00:18:19;10.23;;;6.65;;
51124;SDS011;37163;55.556;39.108;2022-07-06T00:20:45;10.73;;;5.85;;
51124;SDS011;37163;55.556;39.108;2022-07-06T00:23:12;8.27;;;5.65;;
51124;SDS011;37163;55.556;39.108;2022-07-06T00:25:38;10.82;;;6.63;;
51124;SDS011;37163;55.556;39.108;2022-07-06T00:28:05;9.90;;;6.10;;
51124;SDS011;37163;55.556;39.108;2022-07-06T00:30:32;7.32;;;5.00;;
51124;SDS011;37163;55.556;39.108;2022-07-06T00:32:58;8.60;;;5.85;;
51124;SDS011;37163;55.556;39.108;2022-07-06T00:35:25;9.10;;;6.13;;
51124;SDS011;37163;55.556;39.108;2022-07-06T00:37:52;9.40;;;5.68;;
51124;SDS011;37163;55.556;39.108;2022-07-06T00:40:18;9.55;;;5.43;;
51124;SDS011;37163;55.556;39.108;2022-07-06T00:42:46;10.40;;;5.38;;
51124;SDS011;37163;55.556;39.108;2022-07-06T00:45:14;7.18;;;5.00;;
51124;SDS011;37163;55.556;39.108;2022-07-06T00:48:00;7.70;;;5.30;;
51124;SDS011;37163;55.556;39.108;2022-07-06T00:50:28;7.85;;;5.82;;
51124;SDS011;37163;55.556;39.108;2022-07-06T00:52:55;8.32;;;5.43;;
51124;SDS011;37163;55.556;39.108;2022-07-06T00:55:25;9.35;;;5.35;;
51124;SDS011;37163;55.556;39.108;2022-07-06T00:57:54;8.70;;;5.32;;
51124;SDS011;37163;55.556;39.108;2022-07-06T01:00:21;10.05;;;5.82;;
51124;SDS011;37163;55.556;39.108;2022-07-06T01:02:49;11.60;;;6.25;;
51124;SDS011;37163;55.556;39.108;2022-07-06T01:05:16;8.35;;;5.78;;
51124;SDS011;37163;55.556;39.108;2022-07-06T01:08:01;9.50;;;6.20;;
51124;SDS011;37163;55.556;39.108;2022-07-06T01:10:28;10.18;;;6.72;;
51124;SDS011;37163;55.556;39.108;2022-07-06T01:12:55;9.95;;;6.00;;
51124;SDS011;37163;55.556;39.108;2022-07-06T01:15:23;9.18;;;6.13;;
51124;SDS011;37163;55.556;39.108;2022-07-06T01:17:52;9.10;;;5.43;;
51124;SDS011;37163;55.556;39.108;2022-07-06T01:20:24;10.65;;;6.78;;
51124;SDS011;37163;55.556;39.108;2022-07-06T01:22:52;8.82;;;5.80;;
51124;SDS011;37163;55.556;39.108;2022-07-06T01:25:21;10.90;;;6.90;;
51124;SDS011;37163;55.556;39.108;2022-07-06T01:27:48;9.55;;;6.22;;
51124;SDS011;37163;55.556;39.108;2022-07-06T01:30:15;7.88;;;5.88;;
51124;SDS011;37163;55.556;39.108;2022-07-06T01:32:43;9.25;;;5.70;;
51124;SDS011;37163;55.556;39.108;2022-07-06T01:35:11;9.95;;;6.18;;
51124;SDS011;37163;55.556;39.108;2022-07-06T01:37:39;9.15;;;6.05;;
51124;SDS011;37163;55.556;39.108;2022-07-06T01:40:07;8.75;;;6.15;;
51124;SDS011;37163;55.556;39.108;2022-07-06T01:42:36;9.73;;;6.25;;
51124;SDS011;37163;55.556;39.108;2022-07-06T01:45:03;7.97;;;5.75;;
51124;SDS011;37163;55.556;39.108;2022-07-06T01:47:31;8.40;;;6.15;;
51124;SDS011;37163;55.556;39.108;2022-07-06T01:49:59;12.38;;;7.40;;
51124;SDS011;37163;55.556;39.108;2022-07-06T01:52:29;9.38;;;6.45;;
51124;SDS011;37163;55.556;39.108;2022-07-06T01:54:56;9.55;;;6.80;;
51124;SDS011;37163;55.556;39.108;2022-07-06T01:57:22;9.27;;;6.60;;
51124;SDS011;37163;55.556;39.108;2022-07-06T01:59:49;10.52;;;6.00;;
51124;SDS011;37163;55.556;39.108;2022-07-06T02:02:17;8.98;;;6.57;;
51124;SDS011;37163;55.556;39.108;2022-07-06T02:04:44;8.70;;;6.80;;
51124;SDS011;37163;55.556;39.108;2022-07-06T02:07:11;9.77;;;6.30;;
51124;SDS011;37163;55.556;39.108;2022-07-06T02:09:37;8.98;;;6.22;;
51124;SDS011;37163;55.556;39.108;2022-07-06T02:12:04;8.98;;;5.47;;
51124;SDS011;37163;55.556;39.108;2022-07-06T02:14:31;8.75;;;5.57;;
51124;SDS011;37163;55.556;39.108;2022-07-06T02:16:57;16.67;;;6.53;;
51124;SDS011;37163;55.556;39.108;2022-07-06T02:19:24;9.00;;;5.35;;
51124;SDS011;37163;55.556;39.108;2022-07-06T02:21:50;8.75;;;5.40;;
51124;SDS011;37163;55.556;39.108;2022-07-06T02:24:17;8.63;;;6.00;;
51124;SDS011;37163;55.556;39.108;2022-07-06T02:26:43;8.65;;;6.00;;
51124;SDS011;37163;55.556;39.108;2022-07-06T02:29:10;11.05;;;5.78;;
51124;SDS011;37163;55.556;39.108;2022-07-06T02:31:37;9.40;;;6.43;;
51124;SDS011;37163;55.556;39.108;2022-07-06T02:34:04;10.18;;;6.22;;
51124;SDS011;37163;55.556;39.108;2022-07-06T02:36:31;10.38;;;6.65;;
51124;SDS011;37163;55.556;39.108;2022-07-06T02:38:59;9.85;;;5.97;;
51124;SDS011;37163;55.556;39.108;2022-07-06T02:41:27;11.88;;;6.85;;
51124;SDS011;37163;55.556;39.108;2022-07-06T02:43:54;9.13;;;5.85;;
51124;SDS011;37163;55.556;39.108;2022-07-06T02:46:20;8.30;;;6.03;;
51124;SDS011;37163;55.556;39.108;2022-07-06T02:48:47;10.50;;;6.40;;
51124;SDS011;37163;55.556;39.108;2022-07-06T02:51:14;10.25;;;7.03;;
51124;SDS011;37163;55.556;39.108;2022-07-06T02:53:59;9.70;;;6.90;;
51124;SDS011;37163;55.556;39.108;2022-07-06T02:56:25;10.18;;;6.70;;
51124;SDS011;37163;55.556;39.108;2022-07-06T02:58:54;8.07;;;5.53;;
51124;SDS011;37163;55.556;39.108;2022-07-06T03:01:20;8.73;;;5.68;;
51124;SDS011;37163;55.556;39.108;2022-07-06T03:03:47;8.23;;;6.10;;
51124;SDS011;37163;55.556;39.108;2022-07-06T03:06:13;9.45;;;6.18;;
51124;SDS011;37163;55.556;39.108;2022-07-06T03:08:39;8.68;;;5.60;;
51124;SDS011;37163;55.556;39.108;2022-07-06T03:11:06;9.10;;;6.90;;
51124;SDS011;37163;55.556;39.108;2022-07-06T03:13:34;8.80;;;6.07;;
51124;SDS011;37163;55.556;39.108;2022-07-06T03:16:00;10.18;;;5.65;;
51124;SDS011;37163;55.556;39.108;2022-07-06T03:18:28;8.68;;;6.05;;
51124;SDS011;37163;55.556;39.108;2022-07-06T03:20:55;9.43;;;6.13;;
51124;SDS011;37163;55.556;39.108;2022-07-06T03:23:21;8.77;;;5.63;;
51124;SDS011;37163;55.556;39.108;2022-07-06T03:25:48;6.95;;;5.15;;
51124;SDS011;37163;55.556;39.108;2022-07-06T03:28:15;7.97;;;5.72;;
51124;SDS011;37163;55.556;39.108;2022-07-06T03:30:41;7.88;;;5.28;;
51124;SDS011;37163;55.556;39.108;2022-07-06T03:33:08;7.30;;;5.88;;
51124;SDS011;37163;55.556;39.108;2022-07-06T03:35:35;7.75;;;5.97;;
51124;SDS011;37163;55.556;39.108;2022-07-06T03:38:03;8.35;;;5.75;;
51124;SDS011;37163;55.556;39.108;2022-07-06T03:40:48;6.53;;;5.30;;
51124;SDS011;37163;55.556;39.108;2022-07-06T03:43:15;9.45;;;5.47;;
51124;SDS011;37163;55.556;39.108;2022-07-06T03:45:41;7.97;;;5.75;;
51124;SDS011;37163;55.556;39.108;2022-07-06T03:48:08;7.55;;;5.30;;
51124;SDS011;37163;55.556;39.108;2022-07-06T03:50:38;9.32;;;6.68;;
51124;SDS011;37163;55.556;39.108;2022-07-06T03:53:05;8.27;;;5.40;;
51124;SDS011;37163;55.556;39.108;2022-07-06T03:55:32;8.50;;;5.85;;
51124;SDS011;37163;55.556;39.108;2022-07-06T03:58:03;7.07;;;5.30;;
51124;SDS011;37163;55.556;39.108;2022-07-06T04:00:29;8.60;;;6.45;;
51124;SDS011;37163;55.556;39.108;2022-07-06T04:03:01;9.30;;;6.75;;
51124;SDS011;37163;55.556;39.108;2022-07-06T04:05:32;8.48;;;5.93;;
51124;SDS011;37163;55.556;39.108;2022-07-06T04:08:17;7.10;;;5.28;;
51124;SDS011;37163;55.556;39.108;2022-07-06T04:10:51;8.18;;;6.82;;
51124;SDS011;37163;55.556;39.108;2022-07-06T04:13:17;7.63;;;5.75;;
51124;SDS011;37163;55.556;39.108;2022-07-06T04:15:44;8.15;;;6.22;;
51124;SDS011;37163;55.556;39.108;2022-07-06T04:18:11;8.75;;;6.50;;
51124;SDS011;37163;55.556;39.108;2022-07-06T04:20:44;8.82;;;6.55;;
51124;SDS011;37163;55.556;39.108;2022-07-06T04:23:11;8.52;;;6.85;;
51124;SDS011;37163;55.556;39.108;2022-07-06T04:25:37;9.02;;;6.28;;
51124;SDS011;37163;55.556;39.108;2022-07-06T04:28:04;8.57;;;6.68;;
51124;SDS011;37163;55.556;39.108;2022-07-06T04:30:32;8.95;;;6.50;;
51124;SDS011;37163;55.556;39.108;2022-07-06T04:33:00;8.52;;;6.70;;
51124;SDS011;37163;55.556;39.108;2022-07-06T04:35:30;8.48;;;7.40;;
51124;SDS011;37163;55.556;39.108;2022-07-06T04:37:57;8.15;;;6.68;;
51124;SDS011;37163;55.556;39.108;2022-07-06T04:40:25;8.35;;;6.93;;
51124;SDS011;37163;55.556;39.108;2022-07-06T04:42:57;8.13;;;6.70;;
51124;SDS011;37163;55.556;39.108;2022-07-06T04:45:25;9.35;;;7.78;;
51124;SDS011;37163;55.556;39.108;2022-07-06T04:47:52;8.80;;;7.20;;
51124;SDS011;37163;55.556;39.108;2022-07-06T04:50:19;10.32;;;7.60;;
51124;SDS011;37163;55.556;39.108;2022-07-06T04:52:48;8.35;;;6.75;;
51124;SDS011;37163;55.556;39.108;2022-07-06T04:55:16;8.68;;;7.40;;
51124;SDS011;37163;55.556;39.108;2022-07-06T04:57:43;11.63;;;7.35;;
51124;SDS011;37163;55.556;39.108;2022-07-06T05:00:12;9.88;;;7.18;;
51124;SDS011;37163;55.556;39.108;2022-07-06T05:02:39;10.38;;;7.50;;
51124;SDS011;37163;55.556;39.108;2022-07-06T05:05:06;9.68;;;7.93;;
51124;SDS011;37163;55.556;39.108;2022-07-06T05:07:36;9.55;;;8.05;;
51124;SDS011;37163;55.556;39.108;2022-07-06T05:13:29;10.93;;;7.65;;
51124;SDS011;37163;55.556;39.108;2022-07-06T05:15:55;13.60;;;9.73;;
51124;SDS011;37163;55.556;39.108;2022-07-06T05:18:22;12.15;;;9.25;;
51124;SDS011;37163;55.556;39.108;2022-07-06T05:20:48;12.68;;;9.38;;
51124;SDS011;37163;55.556;39.108;2022-07-06T05:23:15;12.65;;;9.38;;
51124;SDS011;37163;55.556;39.108;2022-07-06T05:25:42;10.75;;;9.10;;
51124;SDS011;37163;55.556;39.108;2022-07-06T05:28:09;13.07;;;9.48;;
51124;SDS011;37163;55.556;39.108;2022-07-06T05:30:36;13.20;;;9.05;;
51124;SDS011;37163;55.556;39.108;2022-07-06T05:33:03;13.23;;;9.77;;
51124;SDS011;37163;55.556;39.108;2022-07-06T05:35:30;15.10;;;10.70;;
51124;SDS011;37163;55.556;39.108;2022-07-06T05:37:58;12.40;;;10.13;;
51124;SDS011;37163;55.556;39.108;2022-07-06T05:40:25;14.02;;;11.25;;
51124;SDS011;37163;55.556;39.108;2022-07-06T05:42:53;13.82;;;10.93;;
51124;SDS011;37163;55.556;39.108;2022-07-06T05:45:20;10.63;;;8.40;;
51124;SDS011;37163;55.556;39.108;2022-07-06T05:47:48;10.25;;;8.80;;
51124;SDS011;37163;55.556;39.108;2022-07-06T05:50:34;14.30;;;9.02;;
51124;SDS011;37163;55.556;39.108;2022-07-06T05:53:02;10.40;;;8.38;;
51124;SDS011;37163;55.556;39.108;2022-07-06T05:55:30;11.45;;;9.07;;
51124;SDS011;37163;55.556;39.108;2022-07-06T05:57:59;12.40;;;9.60;;
51124;SDS011;37163;55.556;39.108;2022-07-06T06:00:28;13.00;;;10.40;;
51124;SDS011;37163;55.556;39.108;2022-07-06T06:03:00;15.02;;;10.43;;
51124;SDS011;37163;55.556;39.108;2022-07-06T06:05:26;13.45;;;11.15;;
51124;SDS011;37163;55.556;39.108;2022-07-06T06:07:58;13.27;;;11.88;;
51124;SDS011;37163;55.556;39.108;2022-07-06T06:10:44;11.23;;;10.02;;
51124;SDS011;37163;55.556;39.108;2022-07-06T06:13:13;14.48;;;11.32;;
51124;SDS011;37163;55.556;39.108;2022-07-06T06:15:40;12.50;;;9.50;;
51124;SDS011;37163;55.556;39.108;2022-07-06T06:18:07;11.18;;;8.90;;
51124;SDS011;37163;55.556;39.108;2022-07-06T06:20:33;10.48;;;8.38;;
51124;SDS011;37163;55.556;39.108;2022-07-06T06:23:00;10.88;;;8.55;;
51124;SDS011;37163;55.556;39.108;2022-07-06T06:25:31;10.38;;;9.27;;
51124;SDS011;37163;55.556;39.108;2022-07-06T06:27:59;11.10;;;9.07;;
51124;SDS011;37163;55.556;39.108;2022-07-06T06:30:26;10.88;;;9.27;;
51124;SDS011;37163;55.556;39.108;2022-07-06T06:35:36;10.70;;;8.85;;
51124;SDS011;37163;55.556;39.108;2022-07-06T06:38:03;11.88;;;9.38;;
51124;SDS011;37163;55.556;39.108;2022-07-06T06:40:30;10.10;;;8.32;;
51124;SDS011;37163;55.556;39.108;2022-07-06T06:42:56;10.48;;;8.30;;
51124;SDS011;37163;55.556;39.108;2022-07-06T06:45:24;9.13;;;7.22;;
51124;SDS011;37163;55.556;39.108;2022-07-06T06:47:50;10.80;;;8.55;;
51124;SDS011;37163;55.556;39.108;2022-07-06T06:50:17;9.65;;;7.60;;
51124;SDS011;37163;55.556;39.108;2022-07-06T06:52:44;8.93;;;7.43;;
51124;SDS011;37163;55.556;39.108;2022-07-06T06:55:10;9.23;;;7.00;;
51124;SDS011;37163;55.556;39.108;2022-07-06T06:57:37;11.38;;;7.38;;
51124;SDS011;37163;55.556;39.108;2022-07-06T07:00:03;8.88;;;6.97;;
51124;SDS011;37163;55.556;39.108;2022-07-06T07:02:30;10.38;;;7.70;;
51124;SDS011;37163;55.556;39.108;2022-07-06T07:07:37;7.78;;;6.07;;
51124;SDS011;37163;55.556;39.108;2022-07-06T07:10:04;7.85;;;5.97;;
51124;SDS011;37163;55.556;39.108;2022-07-06T07:12:31;8.00;;;6.88;;
51124;SDS011;37163;55.556;39.108;2022-07-06T07:14:59;7.80;;;6.68;;
51124;SDS011;37163;55.556;39.108;2022-07-06T07:17:26;8.68;;;7.32;;
51124;SDS011;37163;55.556;39.108;2022-07-06T07:19:53;8.48;;;6.35;;
51124;SDS011;37163;55.556;39.108;2022-07-06T07:22:21;9.20;;;6.88;;
51124;SDS011;37163;55.556;39.108;2022-07-06T07:24:48;8.90;;;6.88;;
51124;SDS011;37163;55.556;39.108;2022-07-06T07:27:15;9.45;;;7.32;;
51124;SDS011;37163;55.556;39.108;2022-07-06T07:29:42;9.95;;;7.70;;
51124;SDS011;37163;55.556;39.108;2022-07-06T07:32:08;10.32;;;8.15;;
51124;SDS011;37163;55.556;39.108;2022-07-06T07:34:35;8.48;;;6.95;;
51124;SDS011;37163;55.556;39.108;2022-07-06T07:37:02;8.65;;;6.80;;
51124;SDS011;37163;55.556;39.108;2022-07-06T07:39:28;8.68;;;6.72;;
51124;SDS011;37163;55.556;39.108;2022-07-06T07:41:55;9.95;;;8.27;;
51124;SDS011;37163;55.556;39.108;2022-07-06T07:44:21;9.63;;;7.32;;
51124;SDS011;37163;55.556;39.108;2022-07-06T07:46:48;10.73;;;7.13;;
51124;SDS011;37163;55.556;39.108;2022-07-06T07:49:14;10.50;;;7.43;;
51124;SDS011;37163;55.556;39.108;2022-07-06T07:51:41;10.57;;;7.78;;
51124;SDS011;37163;55.556;39.108;2022-07-06T07:54:08;9.05;;;7.03;;
51124;SDS011;37163;55.556;39.108;2022-07-06T07:56:34;9.38;;;7.35;;
51124;SDS011;37163;55.556;39.108;2022-07-06T07:59:01;9.65;;;8.00;;
51124;SDS011;37163;55.556;39.108;2022-07-06T08:01:30;8.75;;;6.63;;
51124;SDS011;37163;55.556;39.108;2022-07-06T08:03:57;9.32;;;6.05;;
51124;SDS011;37163;55.556;39.108;2022-07-06T08:06:25;8.20;;;6.25;;
51124;SDS011;37163;55.556;39.108;2022-07-06T08:08:52;7.38;;;6.07;;
51124;SDS011;37163;55.556;39.108;2022-07-06T08:11:18;8.13;;;7.07;;
51124;SDS011;37163;55.556;39.108;2022-07-06T08:13:45;8.18;;;7.10;;
51124;SDS011;37163;55.556;39.108;2022-07-06T08:16:13;10.15;;;7.80;;
51124;SDS011;37163;55.556;39.108;2022-07-06T08:18:39;10.23;;;7.50;;
51124;SDS011;37163;55.556;39.108;2022-07-06T08:21:06;10.95;;;8.05;;
51124;SDS011;37163;55.556;39.108;2022-07-06T08:23:33;9.30;;;7.18;;
51124;SDS011;37163;55.556;39.108;2022-07-06T08:26:01;10.43;;;7.63;;
51124;SDS011;37163;55.556;39.108;2022-07-06T08:28:29;8.45;;;6.80;;
51124;SDS011;37163;55.556;39.108;2022-07-06T08:30:56;8.80;;;7.53;;
51124;SDS011;37163;55.556;39.108;2022-07-06T08:33:23;9.20;;;7.97;;
51124;SDS011;37163;55.556;39.108;2022-07-06T08:35:50;9.30;;;8.25;;
51124;SDS011;37163;55.556;39.108;2022-07-06T08:38:17;9.93;;;8.20;;
51124;SDS011;37163;55.556;39.108;2022-07-06T08:40:45;9.95;;;7.18;;
51124;SDS011;37163;55.556;39.108;2022-07-06T08:43:14;11.15;;;8.50;;
51124;SDS011;37163;55.556;39.108;2022-07-06T08:45:41;10.27;;;8.00;;
51124;SDS011;37163;55.556;39.108;2022-07-06T08:48:11;9.48;;;7.80;;
51124;SDS011;37163;55.556;39.108;2022-07-06T08:50:45;10.07;;;7.80;;
51124;SDS011;37163;55.556;39.108;2022-07-06T08:53:12;9.63;;;7.55;;
51124;SDS011;37163;55.556;39.108;2022-07-06T08:55:39;8.48;;;6.82;;
51124;SDS011;37163;55.556;39.108;2022-07-06T08:58:06;9.65;;;6.47;;
51124;SDS011;37163;55.556;39.108;2022-07-06T09:00:33;10.40;;;6.07;;
51124;SDS011;37163;55.556;39.108;2022-07-06T09:03:00;8.10;;;6.63;;
51124;SDS011;37163;55.556;39.108;2022-07-06T09:05:27;6.72;;;5.85;;
51124;SDS011;37163;55.556;39.108;2022-07-06T09:07:55;8.02;;;5.93;;
51124;SDS011;37163;55.556;39.108;2022-07-06T09:10:22;7.18;;;6.07;;
51124;SDS011;37163;55.556;39.108;2022-07-06T09:12:49;7.57;;;5.80;;
51124;SDS011;37163;55.556;39.108;2022-07-06T09:15:16;9.25;;;6.85;;
51124;SDS011;37163;55.556;39.108;2022-07-06T09:17:44;8.63;;;6.03;;
51124;SDS011;37163;55.556;39.108;2022-07-06T09:20:13;8.40;;;6.47;;
51124;SDS011;37163;55.556;39.108;2022-07-06T09:22:41;8.18;;;6.10;;
51124;SDS011;37163;55.556;39.108;2022-07-06T09:25:12;8.45;;;6.47;;
51124;SDS011;37163;55.556;39.108;2022-07-06T09:27:46;9.63;;;6.97;;
51124;SDS011;37163;55.556;39.108;2022-07-06T09:30:16;6.93;;;5.47;;
51124;SDS011;37163;55.556;39.108;2022-07-06T09:32:44;8.13;;;5.90;;
51124;SDS011;37163;55.556;39.108;2022-07-06T09:37:59;7.82;;;6.38;;
51124;SDS011;37163;55.556;39.108;2022-07-06T09:40:31;8.80;;;6.45;;
51124;SDS011;37163;55.556;39.108;2022-07-06T09:43:12;8.35;;;6.45;;
51124;SDS011;37163;55.556;39.108;2022-07-06T09:45:45;9.52;;;6.70;;
51124;SDS011;37163;55.556;39.108;2022-07-06T09:48:22;8.27;;;6.43;;
51124;SDS011;37163;55.556;39.108;2022-07-06T09:53:21;9.02;;;7.03;;
51124;SDS011;37163;55.556;39.108;2022-07-06T09:55:50;8.02;;;6.05;;
51124;SDS011;37163;55.556;39.108;2022-07-06T09:58:18;8.55;;;6.75;;
51124;SDS011;37163;55.556;39.108;2022-07-06T10:00:49;6.85;;;5.63;;
51124;SDS011;37163;55.556;39.108;2022-07-06T10:03:16;8.63;;;6.20;;
51124;SDS011;37163;55.556;39.108;2022-07-06T10:05:45;9.55;;;7.43;;
51124;SDS011;37163;55.556;39.108;2022-07-06T10:11:00;7.97;;;6.20;;
51124;SDS011;37163;55.556;39.108;2022-07-06T10:13:27;9.90;;;6.05;;
51124;SDS011;37163;55.556;39.108;2022-07-06T10:15:55;9.07;;;6.88;;
51124;SDS011;37163;55.556;39.108;2022-07-06T10:18:25;8.80;;;6.50;;
51124;SDS011;37163;55.556;39.108;2022-07-06T10:20:52;10.02;;;7.20;;
51124;SDS011;37163;55.556;39.108;2022-07-06T10:23:19;8.93;;;7.28;;
51124;SDS011;37163;55.556;39.108;2022-07-06T10:25:47;8.38;;;6.25;;
51124;SDS011;37163;55.556;39.108;2022-07-06T10:28:13;7.85;;;6.07;;
51124;SDS011;37163;55.556;39.108;2022-07-06T10:30:41;8.82;;;6.95;;
51124;SDS011;37163;55.556;39.108;2022-07-06T10:33:08;8.95;;;6.65;;
51124;SDS011;37163;55.556;39.108;2022-07-06T10:35:35;9.57;;;6.68;;
51124;SDS011;37163;55.556;39.108;2022-07-06T10:38:09;8.57;;;7.15;;
51124;SDS011;37163;55.556;39.108;2022-07-06T10:40:40;9.50;;;7.85;;
51124;SDS011;37163;55.556;39.108;2022-07-06T10:43:32;8.43;;;6.85;;
51124;SDS011;37163;55.556;39.108;2022-07-06T10:46:07;8.52;;;6.47;;
51124;SDS011;37163;55.556;39.108;2022-07-06T10:48:42;9.82;;;7.38;;
51124;SDS011;37163;55.556;39.108;2022-07-06T10:51:13;9.07;;;7.55;;
51124;SDS011;37163;55.556;39.108;2022-07-06T10:53:56;8.45;;;6.93;;
51124;SDS011;37163;55.556;39.108;2022-07-06T10:59:10;8.00;;;6.75;;
51124;SDS011;37163;55.556;39.108;2022-07-06T11:01:38;9.68;;;6.75;;
51124;SDS011;37163;55.556;39.108;2022-07-06T11:04:08;8.00;;;7.15;;
51124;SDS011;37163;55.556;39.108;2022-07-06T11:06:36;8.93;;;6.72;;
51124;SDS011;37163;55.556;39.108;2022-07-06T11:14:06;8.63;;;6.80;;
51124;SDS011;37163;55.556;39.108;2022-07-06T11:16:36;9.90;;;7.68;;
51124;SDS011;37163;55.556;39.108;2022-07-06T11:19:17;7.97;;;6.47;;
51124;SDS011;37163;55.556;39.108;2022-07-06T11:24:27;9.10;;;7.30;;
51124;SDS011;37163;55.556;39.108;2022-07-06T11:26:55;7.53;;;6.13;;
51124;SDS011;37163;55.556;39.108;2022-07-06T11:29:23;8.25;;;5.95;;
51124;SDS011;37163;55.556;39.108;2022-07-06T11:31:52;6.55;;;5.10;;
51124;SDS011;37163;55.556;39.108;2022-07-06T11:34:24;7.22;;;6.22;;
51124;SDS011;37163;55.556;39.108;2022-07-06T11:36:56;9.02;;;6.15;;
51124;SDS011;37163;55.556;39.108;2022-07-06T11:39:28;9.20;;;6.50;;
51124;SDS011;37163;55.556;39.108;2022-07-06T11:41:59;7.35;;;6.00;;
51124;SDS011;37163;55.556;39.108;2022-07-06T11:44:26;16.60;;;6.35;;
51124;SDS011;37163;55.556;39.108;2022-07-06T11:46:53;7.47;;;6.03;;
51124;SDS011;37163;55.556;39.108;2022-07-06T11:49:26;8.27;;;5.70;;
51124;SDS011;37163;55.556;39.108;2022-07-06T11:51:52;8.75;;;6.28;;
51124;SDS011;37163;55.556;39.108;2022-07-06T11:54:20;8.52;;;5.93;;
51124;SDS011;37163;55.556;39.108;2022-07-06T11:59:14;7.75;;;6.25;;
51124;SDS011;37163;55.556;39.108;2022-07-06T12:01:42;8.27;;;6.15;;
51124;SDS011;37163;55.556;39.108;2022-07-06T12:04:31;7.85;;;6.07;;
51124;SDS011;37163;55.556;39.108;2022-07-06T12:07:04;8.23;;;5.78;;
51124;SDS011;37163;55.556;39.108;2022-07-06T12:09:39;6.72;;;5.40;;
51124;SDS011;37163;55.556;39.108;2022-07-06T12:12:07;10.23;;;6.15;;
51124;SDS011;37163;55.556;39.108;2022-07-06T12:14:35;7.57;;;5.90;;
51124;SDS011;37163;55.556;39.108;2022-07-06T12:17:08;7.60;;;5.88;;
51124;SDS011;37163;55.556;39.108;2022-07-06T12:19:36;7.88;;;5.78;;
51124;SDS011;37163;55.556;39.108;2022-07-06T12:22:04;8.30;;;5.72;;
51124;SDS011;37163;55.556;39.108;2022-07-06T12:24:31;8.45;;;5.45;;
51124;SDS011;37163;55.556;39.108;2022-07-06T12:27:19;6.97;;;5.82;;
51124;SDS011;37163;55.556;39.108;2022-07-06T12:29:46;8.02;;;5.97;;
51124;SDS011;37163;55.556;39.108;2022-07-06T12:32:17;8.38;;;5.60;;
51124;SDS011;37163;55.556;39.108;2022-07-06T12:34:45;7.72;;;6.15;;
51124;SDS011;37163;55.556;39.108;2022-07-06T12:37:12;7.28;;;5.25;;
51124;SDS011;37163;55.556;39.108;2022-07-06T12:42:09;6.97;;;5.05;;
51124;SDS011;37163;55.556;39.108;2022-07-06T12:44:51;8.82;;;6.25;;
51124;SDS011;37163;55.556;39.108;2022-07-06T12:47:19;8.70;;;6.00;;
51124;SDS011;37163;55.556;39.108;2022-07-06T12:49:47;6.85;;;5.82;;
51124;SDS011;37163;55.556;39.108;2022-07-06T12:52:14;8.18;;;6.63;;
51124;SDS011;37163;55.556;39.108;2022-07-06T12:57:22;7.45;;;5.93;;
51124;SDS011;37163;55.556;39.108;2022-07-06T13:02:25;7.65;;;5.75;;
51124;SDS011;37163;55.556;39.108;2022-07-06T13:07:32;7.65;;;6.53;;
51124;SDS011;37163;55.556;39.108;2022-07-06T13:10:03;8.13;;;6.65;;
51124;SDS011;37163;55.556;39.108;2022-07-06T13:12:31;7.18;;;5.72;;
51124;SDS011;37163;55.556;39.108;2022-07-06T13:14:58;7.78;;;5.80;;
51124;SDS011;37163;55.556;39.108;2022-07-06T13:17:25;7.97;;;6.63;;
51124;SDS011;37163;55.556;39.108;2022-07-06T13:19:51;10.98;;;5.95;;
51124;SDS011;37163;55.556;39.108;2022-07-06T13:22:18;7.40;;;6.18;;
51124;SDS011;37163;55.556;39.108;2022-07-06T13:24:45;8.07;;;6.57;;
51124;SDS011;37163;55.556;39.108;2022-07-06T13:27:12;7.03;;;5.70;;
51124;SDS011;37163;55.556;39.108;2022-07-06T13:29:38;8.63;;;6.85;;
51124;SDS011;37163;55.556;39.108;2022-07-06T13:32:05;7.75;;;6.32;;
51124;SDS011;37163;55.556;39.108;2022-07-06T13:34:32;8.32;;;6.22;;
51124;SDS011;37163;55.556;39.108;2022-07-06T13:37:01;7.25;;;6.00;;
51124;SDS011;37163;55.556;39.108;2022-07-06T13:39:29;9.95;;;6.53;;
51124;SDS011;37163;55.556;39.108;2022-07-06T13:41:55;8.63;;;6.18;;
51124;SDS011;37163;55.556;39.108;2022-07-06T13:44:22;8.00;;;6.90;;
51124;SDS011;37163;55.556;39.108;2022-07-06T13:46:49;9.18;;;6.72;;
51124;SDS011;37163;55.556;39.108;2022-07-06T13:49:16;8.23;;;6.65;;
51124;SDS011;37163;55.556;39.108;2022-07-06T13:51:42;9.45;;;7.00;;
51124;SDS011;37163;55.556;39.108;2022-07-06T13:54:09;9.48;;;6.65;;
51124;SDS011;37163;55.556;39.108;2022-07-06T13:56:37;11.45;;;7.15;;
51124;SDS011;37163;55.556;39.108;2022-07-06T13:59:05;10.35;;;6.88;;
51124;SDS011;37163;55.556;39.108;2022-07-06T14:01:32;9.82;;;6.50;;
51124;SDS011;37163;55.556;39.108;2022-07-06T14:03:59;9.32;;;6.30;;
51124;SDS011;37163;55.556;39.108;2022-07-06T14:06:25;11.10;;;7.55;;
51124;SDS011;37163;55.556;39.108;2022-07-06T14:08:52;8.25;;;6.45;;
51124;SDS011;37163;55.556;39.108;2022-07-06T14:11:18;16.83;;;7.53;;
51124;SDS011;37163;55.556;39.108;2022-07-06T14:13:45;9.85;;;7.00;;
51124;SDS011;37163;55.556;39.108;2022-07-06T14:16:11;9.07;;;6.97;;
51124;SDS011;37163;55.556;39.108;2022-07-06T14:18:38;10.05;;;7.30;;
51124;SDS011;37163;55.556;39.108;2022-07-06T14:21:05;9.38;;;6.97;;
51124;SDS011;37163;55.556;39.108;2022-07-06T14:23:31;11.68;;;7.43;;
51124;SDS011;37163;55.556;39.108;2022-07-06T14:25:58;13.80;;;8.27;;
51124;SDS011;37163;55.556;39.108;2022-07-06T14:28:25;13.48;;;8.02;;
51124;SDS011;37163;55.556;39.108;2022-07-06T14:30:51;9.45;;;7.05;;
51124;SDS011;37163;55.556;39.108;2022-07-06T14:33:20;8.98;;;7.10;;
51124;SDS011;37163;55.556;39.108;2022-07-06T14:35:47;9.23;;;7.72;;
51124;SDS011;37163;55.556;39.108;2022-07-06T14:38:16;11.45;;;7.70;;
51124;SDS011;37163;55.556;39.108;2022-07-06T14:40:43;10.75;;;7.88;;
51124;SDS011;37163;55.556;39.108;2022-07-06T14:43:10;7.43;;;6.20;;
51124;SDS011;37163;55.556;39.108;2022-07-06T14:45:38;8.73;;;6.70;;
51124;SDS011;37163;55.556;39.108;2022-07-06T14:48:04;7.95;;;5.90;;
51124;SDS011;37163;55.556;39.108;2022-07-06T14:50:31;8.85;;;6.13;;
51124;SDS011;37163;55.556;39.108;2022-07-06T14:52:58;7.15;;;5.57;;
51124;SDS011;37163;55.556;39.108;2022-07-06T14:55:25;7.35;;;5.78;;
51124;SDS011;37163;55.556;39.108;2022-07-06T14:57:52;9.70;;;7.05;;
51124;SDS011;37163;55.556;39.108;2022-07-06T15:00:20;8.60;;;6.35;;
51124;SDS011;37163;55.556;39.108;2022-07-06T15:02:48;8.48;;;6.70;;
51124;SDS011;37163;55.556;39.108;2022-07-06T15:05:15;9.38;;;5.22;;
51124;SDS011;37163;55.556;39.108;2022-07-06T15:07:41;8.02;;;6.57;;
51124;SDS011;37163;55.556;39.108;2022-07-06T15:10:08;11.60;;;6.10;;
51124;SDS011;37163;55.556;39.108;2022-07-06T15:12:36;6.93;;;5.43;;
51124;SDS011;37163;55.556;39.108;2022-07-06T15:15:03;9.77;;;6.32;;
51124;SDS011;37163;55.556;39.108;2022-07-06T15:17:30;7.72;;;6.30;;